sensor_id;sensor_type;location;lat;lon;timestamp;temperature;humidity
20911;DHT22;10615;42.702;23.314;2024-03-17T00:00:24;10.00;82.40
20911;DHT22;10615;42.702;23.314;2024-03-17T00:01:25;10.10;82.60
20911;DHT22;10615;42.702;23.314;2024-03-17T00:02:26;10.00;82.40
20911;DHT22;10615;42.702;23.314;2024-03-17T00:03:28;10.10;82.50
20911;DHT22;10615;42.702;23.314;2024-03-17T00:04:29;10.10;82.40
20911;DHT22;10615;42.702;23.314;2024-03-17T00:05:29;10.10;82.40
20911;DHT22;10615;42.702;23.314;2024-03-17T00:06:30;10.10;82.30
20911;DHT22;10615;42.702;23.314;2024-03-17T00:07:31;10.10;82.20
20911;DHT22;10615;42.702;23.314;2024-03-17T00:08:32;10.10;82.10
20911;DHT22;10615;42.702;23.314;2024-03-17T00:09:33;10.10;82.10
20911;DHT22;10615;42.702;23.314;2024-03-17T00:10:34;10.10;82.10
20911;DHT22;10615;42.702;23.314;2024-03-17T00:11:35;10.10;82.10
20911;DHT22;10615;42.702;23.314;2024-03-17T00:12:36;10.10;82.10
20911;DHT22;10615;42.702;23.314;2024-03-17T00:13:37;10.10;82.10
20911;DHT22;10615;42.702;23.314;2024-03-17T00:14:38;10.10;82.90
20911;DHT22;10615;42.702;23.314;2024-03-17T00:15:39;10.10;82.10
20911;DHT22;10615;42.702;23.314;2024-03-17T00:16:40;10.10;82.10
20911;DHT22;10615;42.702;23.314;2024-03-17T00:17:41;10.00;82.10
20911;DHT22;10615;42.702;23.314;2024-03-17T00:18:41;10.00;82.10
20911;DHT22;10615;42.702;23.314;2024-03-17T00:19:42;10.10;82.30
20911;DHT22;10615;42.702;23.314;2024-03-17T00:20:43;10.10;82.30
20911;DHT22;10615;42.702;23.314;2024-03-17T00:21:44;10.00;82.30
20911;DHT22;10615;42.702;23.314;2024-03-17T00:22:49;10.00;82.40
20911;DHT22;10615;42.702;23.314;2024-03-17T00:23:51;10.00;82.40
20911;DHT22;10615;42.702;23.314;2024-03-17T00:24:52;10.00;82.60
20911;DHT22;10615;42.702;23.314;2024-03-17T00:25:55;10.00;82.70
20911;DHT22;10615;42.702;23.314;2024-03-17T00:26:55;10.00;82.70
20911;DHT22;10615;42.702;23.314;2024-03-17T00:27:56;10.00;82.80
20911;DHT22;10615;42.702;23.314;2024-03-17T00:28:58;10.00;82.90
20911;DHT22;10615;42.702;23.314;2024-03-17T00:29:59;10.00;83.00
20911;DHT22;10615;42.702;23.314;2024-03-17T00:30:59;10.00;83.20
20911;DHT22;10615;42.702;23.314;2024-03-17T00:32:00;10.00;83.30
20911;DHT22;10615;42.702;23.314;2024-03-17T00:33:01;10.00;83.30
20911;DHT22;10615;42.702;23.314;2024-03-17T00:34:01;10.00;83.30
20911;DHT22;10615;42.702;23.314;2024-03-17T00:35:02;10.00;83.30
20911;DHT22;10615;42.702;23.314;2024-03-17T00:36:05;10.00;83.40
20911;DHT22;10615;42.702;23.314;2024-03-17T00:37:06;10.00;83.40
20911;DHT22;10615;42.702;23.314;2024-03-17T00:38:07;10.00;83.40
20911;DHT22;10615;42.702;23.314;2024-03-17T00:39:10;10.00;83.40
20911;DHT22;10615;42.702;23.314;2024-03-17T00:40:11;10.00;83.40
20911;DHT22;10615;42.702;23.314;2024-03-17T00:41:12;10.00;83.50
20911;DHT22;10615;42.702;23.314;2024-03-17T00:42:13;10.00;83.60
20911;DHT22;10615;42.702;23.314;2024-03-17T00:43:14;10.00;83.60
20911;DHT22;10615;42.702;23.314;2024-03-17T00:44:15;9.90;83.60
20911;DHT22;10615;42.702;23.314;2024-03-17T00:45:15;9.90;83.60
20911;DHT22;10615;42.702;23.314;2024-03-17T00:46:16;9.90;83.80
20911;DHT22;10615;42.702;23.314;2024-03-17T00:47:18;9.90;83.70
20911;DHT22;10615;42.702;23.314;2024-03-17T00:48:19;10.00;83.90
20911;DHT22;10615;42.702;23.314;2024-03-17T00:49:19;9.90;83.80
20911;DHT22;10615;42.702;23.314;2024-03-17T00:50:20;9.90;83.90
20911;DHT22;10615;42.702;23.314;2024-03-17T00:51:21;9.90;83.90
20911;DHT22;10615;42.702;23.314;2024-03-17T00:52:22;9.90;84.00
20911;DHT22;10615;42.702;23.314;2024-03-17T00:53:22;9.90;84.00
20911;DHT22;10615;42.702;23.314;2024-03-17T00:54:23;9.90;84.00
20911;DHT22;10615;42.702;23.314;2024-03-17T00:55:24;9.90;84.00
20911;DHT22;10615;42.702;23.314;2024-03-17T00:56:25;9.90;84.10
20911;DHT22;10615;42.702;23.314;2024-03-17T00:57:25;9.90;84.10
20911;DHT22;10615;42.702;23.314;2024-03-17T00:58:26;10.00;84.20
20911;DHT22;10615;42.702;23.314;2024-03-17T00:59:27;9.90;84.10
20911;DHT22;10615;42.702;23.314;2024-03-17T01:00:28;9.90;84.10
20911;DHT22;10615;42.702;23.314;2024-03-17T01:01:28;9.90;84.10
20911;DHT22;10615;42.702;23.314;2024-03-17T01:02:29;9.90;84.20
20911;DHT22;10615;42.702;23.314;2024-03-17T01:03:30;9.90;84.20
20911;DHT22;10615;42.702;23.314;2024-03-17T01:04:31;9.90;84.20
20911;DHT22;10615;42.702;23.314;2024-03-17T01:05:34;9.90;84.20
20911;DHT22;10615;42.702;23.314;2024-03-17T01:06:35;9.90;84.20
20911;DHT22;10615;42.702;23.314;2024-03-17T01:07:36;9.90;84.20
20911;DHT22;10615;42.702;23.314;2024-03-17T01:08:37;9.90;84.20
20911;DHT22;10615;42.702;23.314;2024-03-17T01:09:38;9.90;84.20
20911;DHT22;10615;42.702;23.314;2024-03-17T01:10:40;9.90;84.20
20911;DHT22;10615;42.702;23.314;2024-03-17T01:11:41;9.90;84.20
20911;DHT22;10615;42.702;23.314;2024-03-17T01:12:41;9.80;84.30
20911;DHT22;10615;42.702;23.314;2024-03-17T01:13:42;9.80;85.30
20911;DHT22;10615;42.702;23.314;2024-03-17T01:14:43;9.80;84.40
20911;DHT22;10615;42.702;23.314;2024-03-17T01:15:44;9.80;84.40
20911;DHT22;10615;42.702;23.314;2024-03-17T01:16:45;9.80;84.50
20911;DHT22;10615;42.702;23.314;2024-03-17T01:17:46;9.80;84.50
20911;DHT22;10615;42.702;23.314;2024-03-17T01:18:47;9.80;84.40
20911;DHT22;10615;42.702;23.314;2024-03-17T01:19:47;9.80;84.50
20911;DHT22;10615;42.702;23.314;2024-03-17T01:20:48;9.80;84.40
20911;DHT22;10615;42.702;23.314;2024-03-17T01:21:49;9.80;84.50
20911;DHT22;10615;42.702;23.314;2024-03-17T01:23:08;9.80;84.50
20911;DHT22;10615;42.702;23.314;2024-03-17T01:24:09;9.80;84.40
20911;DHT22;10615;42.702;23.314;2024-03-17T01:25:10;9.80;84.40
20911;DHT22;10615;42.702;23.314;2024-03-17T01:26:11;9.80;84.40
20911;DHT22;10615;42.702;23.314;2024-03-17T01:27:12;9.80;85.00
20911;DHT22;10615;42.702;23.314;2024-03-17T01:28:16;9.70;84.60
20911;DHT22;10615;42.702;23.314;2024-03-17T01:29:17;9.70;84.60
20911;DHT22;10615;42.702;23.314;2024-03-17T01:30:17;9.70;84.90
20911;DHT22;10615;42.702;23.314;2024-03-17T01:31:19;9.70;84.80
20911;DHT22;10615;42.702;23.314;2024-03-17T01:32:20;9.70;84.80
20911;DHT22;10615;42.702;23.314;2024-03-17T01:33:21;9.70;84.80
20911;DHT22;10615;42.702;23.314;2024-03-17T01:34:22;9.70;85.70
20911;DHT22;10615;42.702;23.314;2024-03-17T01:35:22;9.60;84.80
20911;DHT22;10615;42.702;23.314;2024-03-17T01:36:23;9.60;84.90
20911;DHT22;10615;42.702;23.314;2024-03-17T01:37:24;9.60;84.90
20911;DHT22;10615;42.702;23.314;2024-03-17T01:38:25;9.60;85.00
20911;DHT22;10615;42.702;23.314;2024-03-17T01:39:25;9.60;85.00
20911;DHT22;10615;42.702;23.314;2024-03-17T01:40:26;9.60;85.10
20911;DHT22;10615;42.702;23.314;2024-03-17T01:41:27;9.60;85.20
20911;DHT22;10615;42.702;23.314;2024-03-17T01:42:28;9.60;85.20
20911;DHT22;10615;42.702;23.314;2024-03-17T01:43:29;9.60;85.20
20911;DHT22;10615;42.702;23.314;2024-03-17T01:44:30;9.60;86.00
20911;DHT22;10615;42.702;23.314;2024-03-17T01:45:34;9.60;85.20
20911;DHT22;10615;42.702;23.314;2024-03-17T01:46:35;9.60;85.20
20911;DHT22;10615;42.702;23.314;2024-03-17T01:47:36;9.60;85.20
20911;DHT22;10615;42.702;23.314;2024-03-17T01:48:37;9.60;85.20
20911;DHT22;10615;42.702;23.314;2024-03-17T01:49:38;9.60;85.20
20911;DHT22;10615;42.702;23.314;2024-03-17T01:50:39;9.60;85.20
20911;DHT22;10615;42.702;23.314;2024-03-17T01:51:40;9.60;85.20
20911;DHT22;10615;42.702;23.314;2024-03-17T01:52:41;9.60;85.20
20911;DHT22;10615;42.702;23.314;2024-03-17T01:53:42;9.60;85.20
20911;DHT22;10615;42.702;23.314;2024-03-17T01:54:44;9.50;85.10
20911;DHT22;10615;42.702;23.314;2024-03-17T01:55:47;9.60;85.20
20911;DHT22;10615;42.702;23.314;2024-03-17T01:56:48;9.50;85.20
20911;DHT22;10615;42.702;23.314;2024-03-17T01:57:50;9.50;85.30
20911;DHT22;10615;42.702;23.314;2024-03-17T01:58:51;9.50;85.20
20911;DHT22;10615;42.702;23.314;2024-03-17T01:59:52;9.50;85.30
20911;DHT22;10615;42.702;23.314;2024-03-17T02:00:55;9.50;85.30
20911;DHT22;10615;42.702;23.314;2024-03-17T02:01:56;9.50;85.30
20911;DHT22;10615;42.702;23.314;2024-03-17T02:02:57;9.50;85.50
20911;DHT22;10615;42.702;23.314;2024-03-17T02:03:59;9.50;85.50
20911;DHT22;10615;42.702;23.314;2024-03-17T02:05:00;9.40;85.50
20911;DHT22;10615;42.702;23.314;2024-03-17T02:06:00;9.50;85.50
20911;DHT22;10615;42.702;23.314;2024-03-17T02:07:01;9.40;85.50
20911;DHT22;10615;42.702;23.314;2024-03-17T02:08:02;9.40;85.60
20911;DHT22;10615;42.702;23.314;2024-03-17T02:09:03;9.40;85.60
20911;DHT22;10615;42.702;23.314;2024-03-17T02:10:04;9.40;85.70
20911;DHT22;10615;42.702;23.314;2024-03-17T02:12:28;9.40;85.80
20911;DHT22;10615;42.702;23.314;2024-03-17T02:13:29;9.40;85.90
20911;DHT22;10615;42.702;23.314;2024-03-17T02:14:29;9.40;85.90
20911;DHT22;10615;42.702;23.314;2024-03-17T02:15:30;9.30;85.90
20911;DHT22;10615;42.702;23.314;2024-03-17T02:16:31;9.40;86.10
20911;DHT22;10615;42.702;23.314;2024-03-17T02:17:33;9.40;86.10
20911;DHT22;10615;42.702;23.314;2024-03-17T02:18:34;9.30;86.00
20911;DHT22;10615;42.702;23.314;2024-03-17T02:19:34;9.40;86.20
20911;DHT22;10615;42.702;23.314;2024-03-17T02:20:35;9.40;86.20
20911;DHT22;10615;42.702;23.314;2024-03-17T02:21:54;9.30;86.20
20911;DHT22;10615;42.702;23.314;2024-03-17T02:22:55;9.30;86.20
20911;DHT22;10615;42.702;23.314;2024-03-17T02:23:56;9.30;86.20
20911;DHT22;10615;42.702;23.314;2024-03-17T02:24:57;9.30;86.30
20911;DHT22;10615;42.702;23.314;2024-03-17T02:25:57;9.30;86.50
20911;DHT22;10615;42.702;23.314;2024-03-17T02:26:58;9.30;86.50
20911;DHT22;10615;42.702;23.314;2024-03-17T02:27:59;9.30;86.50
20911;DHT22;10615;42.702;23.314;2024-03-17T02:29:00;9.30;86.50
20911;DHT22;10615;42.702;23.314;2024-03-17T02:30:02;9.30;86.50
20911;DHT22;10615;42.702;23.314;2024-03-17T02:31:04;9.30;86.70
20911;DHT22;10615;42.702;23.314;2024-03-17T02:32:06;9.30;86.70
20911;DHT22;10615;42.702;23.314;2024-03-17T02:33:07;9.30;86.70
20911;DHT22;10615;42.702;23.314;2024-03-17T02:34:08;9.20;86.60
20911;DHT22;10615;42.702;23.314;2024-03-17T02:35:09;9.20;86.60
20911;DHT22;10615;42.702;23.314;2024-03-17T02:36:12;9.20;86.70
20911;DHT22;10615;42.702;23.314;2024-03-17T02:37:13;9.20;86.80
20911;DHT22;10615;42.702;23.314;2024-03-17T02:38:16;9.20;86.80
20911;DHT22;10615;42.702;23.314;2024-03-17T02:39:37;9.20;86.90
20911;DHT22;10615;42.702;23.314;2024-03-17T02:40:39;9.20;87.10
20911;DHT22;10615;42.702;23.314;2024-03-17T02:41:43;9.20;87.10
20911;DHT22;10615;42.702;23.314;2024-03-17T02:42:44;9.20;87.10
20911;DHT22;10615;42.702;23.314;2024-03-17T02:43:45;9.20;87.10
20911;DHT22;10615;42.702;23.314;2024-03-17T02:44:46;9.20;87.10
20911;DHT22;10615;42.702;23.314;2024-03-17T02:45:47;9.10;87.10
20911;DHT22;10615;42.702;23.314;2024-03-17T02:46:48;9.10;87.00
20911;DHT22;10615;42.702;23.314;2024-03-17T02:47:48;9.10;87.20
20911;DHT22;10615;42.702;23.314;2024-03-17T02:48:52;9.00;87.20
20911;DHT22;10615;42.702;23.314;2024-03-17T02:49:53;9.00;87.50
20911;DHT22;10615;42.702;23.314;2024-03-17T02:50:54;9.00;87.70
20911;DHT22;10615;42.702;23.314;2024-03-17T02:52:13;9.00;87.80
20911;DHT22;10615;42.702;23.314;2024-03-17T02:53:14;9.00;87.90
20911;DHT22;10615;42.702;23.314;2024-03-17T02:54:15;9.00;88.00
20911;DHT22;10615;42.702;23.314;2024-03-17T02:55:16;9.00;88.00
20911;DHT22;10615;42.702;23.314;2024-03-17T02:56:18;9.00;88.00
20911;DHT22;10615;42.702;23.314;2024-03-17T02:57:19;9.00;88.00
20911;DHT22;10615;42.702;23.314;2024-03-17T02:58:19;9.00;88.00
20911;DHT22;10615;42.702;23.314;2024-03-17T02:59:20;9.00;88.10
20911;DHT22;10615;42.702;23.314;2024-03-17T03:00:22;9.00;88.10
20911;DHT22;10615;42.702;23.314;2024-03-17T03:01:22;9.00;88.20
20911;DHT22;10615;42.702;23.314;2024-03-17T03:02:23;9.00;88.10
20911;DHT22;10615;42.702;23.314;2024-03-17T03:03:24;9.00;88.10
20911;DHT22;10615;42.702;23.314;2024-03-17T03:04:26;8.90;88.10
20911;DHT22;10615;42.702;23.314;2024-03-17T03:05:27;8.90;88.20
20911;DHT22;10615;42.702;23.314;2024-03-17T03:06:27;8.90;88.30
20911;DHT22;10615;42.702;23.314;2024-03-17T03:07:28;8.90;88.30
20911;DHT22;10615;42.702;23.314;2024-03-17T03:08:29;8.90;88.40
20911;DHT22;10615;42.702;23.314;2024-03-17T03:09:30;8.90;88.50
20911;DHT22;10615;42.702;23.314;2024-03-17T03:10:33;8.90;89.30
20911;DHT22;10615;42.702;23.314;2024-03-17T03:11:36;8.90;88.60
20911;DHT22;10615;42.702;23.314;2024-03-17T03:12:36;8.90;88.60
20911;DHT22;10615;42.702;23.314;2024-03-17T03:13:41;8.90;88.60
20911;DHT22;10615;42.702;23.314;2024-03-17T03:14:43;8.90;88.60
20911;DHT22;10615;42.702;23.314;2024-03-17T03:15:44;9.00;88.60
20911;DHT22;10615;42.702;23.314;2024-03-17T03:16:44;8.90;88.50
20911;DHT22;10615;42.702;23.314;2024-03-17T03:17:45;8.90;88.40
20911;DHT22;10615;42.702;23.314;2024-03-17T03:18:46;8.90;88.50
20911;DHT22;10615;42.702;23.314;2024-03-17T03:19:46;8.90;88.60
20911;DHT22;10615;42.702;23.314;2024-03-17T03:20:51;8.90;88.60
20911;DHT22;10615;42.702;23.314;2024-03-17T03:21:53;8.90;88.70
20911;DHT22;10615;42.702;23.314;2024-03-17T03:22:53;8.90;88.70
20911;DHT22;10615;42.702;23.314;2024-03-17T03:23:54;8.80;88.80
20911;DHT22;10615;42.702;23.314;2024-03-17T03:24:55;8.80;88.90
20911;DHT22;10615;42.702;23.314;2024-03-17T03:25:56;8.80;89.00
20911;DHT22;10615;42.702;23.314;2024-03-17T03:26:57;8.80;89.00
20911;DHT22;10615;42.702;23.314;2024-03-17T03:27:58;8.80;89.00
20911;DHT22;10615;42.702;23.314;2024-03-17T03:28:59;8.80;89.10
20911;DHT22;10615;42.702;23.314;2024-03-17T03:30:00;8.80;89.10
20911;DHT22;10615;42.702;23.314;2024-03-17T03:31:01;8.80;89.20
20911;DHT22;10615;42.702;23.314;2024-03-17T03:32:02;8.80;89.10
20911;DHT22;10615;42.702;23.314;2024-03-17T03:33:03;8.80;89.10
20911;DHT22;10615;42.702;23.314;2024-03-17T03:34:05;8.80;89.10
20911;DHT22;10615;42.702;23.314;2024-03-17T03:35:08;8.80;89.20
20911;DHT22;10615;42.702;23.314;2024-03-17T03:36:14;8.80;89.30
20911;DHT22;10615;42.702;23.314;2024-03-17T03:37:15;8.80;89.30
20911;DHT22;10615;42.702;23.314;2024-03-17T03:38:17;8.80;89.40
20911;DHT22;10615;42.702;23.314;2024-03-17T03:39:18;8.80;89.30
20911;DHT22;10615;42.702;23.314;2024-03-17T03:40:20;8.80;89.20
20911;DHT22;10615;42.702;23.314;2024-03-17T03:41:23;8.80;90.00
20911;DHT22;10615;42.702;23.314;2024-03-17T03:42:24;8.80;89.40
20911;DHT22;10615;42.702;23.314;2024-03-17T03:43:25;8.70;89.40
20911;DHT22;10615;42.702;23.314;2024-03-17T03:44:28;8.70;89.40
20911;DHT22;10615;42.702;23.314;2024-03-17T03:45:29;8.70;89.50
20911;DHT22;10615;42.702;23.314;2024-03-17T03:46:29;8.70;89.60
20911;DHT22;10615;42.702;23.314;2024-03-17T03:47:30;8.70;89.50
20911;DHT22;10615;42.702;23.314;2024-03-17T03:48:31;8.70;89.50
20911;DHT22;10615;42.702;23.314;2024-03-17T03:49:32;8.60;89.40
20911;DHT22;10615;42.702;23.314;2024-03-17T03:50:34;8.60;89.70
20911;DHT22;10615;42.702;23.314;2024-03-17T03:51:35;8.60;89.90
20911;DHT22;10615;42.702;23.314;2024-03-17T03:52:39;8.60;90.00
20911;DHT22;10615;42.702;23.314;2024-03-17T03:53:40;8.60;90.00
20911;DHT22;10615;42.702;23.314;2024-03-17T03:54:43;8.60;90.10
20911;DHT22;10615;42.702;23.314;2024-03-17T03:55:43;8.60;90.10
20911;DHT22;10615;42.702;23.314;2024-03-17T03:56:44;8.60;90.10
20911;DHT22;10615;42.702;23.314;2024-03-17T03:57:45;8.50;90.10
20911;DHT22;10615;42.702;23.314;2024-03-17T03:58:50;8.50;90.10
20911;DHT22;10615;42.702;23.314;2024-03-17T03:59:51;8.50;90.20
20911;DHT22;10615;42.702;23.314;2024-03-17T04:00:52;8.50;90.20
20911;DHT22;10615;42.702;23.314;2024-03-17T04:01:53;8.50;90.20
20911;DHT22;10615;42.702;23.314;2024-03-17T04:02:54;8.50;90.30
20911;DHT22;10615;42.702;23.314;2024-03-17T04:03:55;8.50;90.30
20911;DHT22;10615;42.702;23.314;2024-03-17T04:04:55;8.50;90.40
20911;DHT22;10615;42.702;23.314;2024-03-17T04:06:10;8.50;90.40
20911;DHT22;10615;42.702;23.314;2024-03-17T04:07:11;8.50;90.40
20911;DHT22;10615;42.702;23.314;2024-03-17T04:08:12;8.50;90.30
20911;DHT22;10615;42.702;23.314;2024-03-17T04:09:13;8.50;90.30
20911;DHT22;10615;42.702;23.314;2024-03-17T04:10:15;8.50;90.40
20911;DHT22;10615;42.702;23.314;2024-03-17T04:11:16;8.50;90.40
20911;DHT22;10615;42.702;23.314;2024-03-17T04:12:16;8.50;90.40
20911;DHT22;10615;42.702;23.314;2024-03-17T04:13:17;8.50;90.50
20911;DHT22;10615;42.702;23.314;2024-03-17T04:14:19;8.50;90.40
20911;DHT22;10615;42.702;23.314;2024-03-17T04:15:20;8.50;90.40
20911;DHT22;10615;42.702;23.314;2024-03-17T04:16:20;8.60;90.40
20911;DHT22;10615;42.702;23.314;2024-03-17T04:17:22;8.60;90.30
20911;DHT22;10615;42.702;23.314;2024-03-17T04:18:24;8.60;90.30
20911;DHT22;10615;42.702;23.314;2024-03-17T04:19:25;8.50;90.20
20911;DHT22;10615;42.702;23.314;2024-03-17T04:20:26;8.50;90.30
20911;DHT22;10615;42.702;23.314;2024-03-17T04:21:27;8.50;90.30
20911;DHT22;10615;42.702;23.314;2024-03-17T04:22:28;8.50;90.30
20911;DHT22;10615;42.702;23.314;2024-03-17T04:23:28;8.60;90.30
20911;DHT22;10615;42.702;23.314;2024-03-17T04:24:29;8.60;90.30
20911;DHT22;10615;42.702;23.314;2024-03-17T04:25:30;8.60;90.30
20911;DHT22;10615;42.702;23.314;2024-03-17T04:26:31;8.60;90.20
20911;DHT22;10615;42.702;23.314;2024-03-17T04:27:31;8.60;90.20
20911;DHT22;10615;42.702;23.314;2024-03-17T04:28:32;8.60;90.20
20911;DHT22;10615;42.702;23.314;2024-03-17T04:29:33;8.50;90.20
20911;DHT22;10615;42.702;23.314;2024-03-17T04:30:35;8.50;90.20
20911;DHT22;10615;42.702;23.314;2024-03-17T04:31:36;8.50;90.30
20911;DHT22;10615;42.702;23.314;2024-03-17T04:32:36;8.50;90.30
20911;DHT22;10615;42.702;23.314;2024-03-17T04:33:37;8.50;90.20
20911;DHT22;10615;42.702;23.314;2024-03-17T04:34:38;8.50;90.30
20911;DHT22;10615;42.702;23.314;2024-03-17T04:35:39;8.40;90.30
20911;DHT22;10615;42.702;23.314;2024-03-17T04:36:40;8.40;90.40
20911;DHT22;10615;42.702;23.314;2024-03-17T04:37:41;8.40;90.40
20911;DHT22;10615;42.702;23.314;2024-03-17T04:38:42;8.40;90.50
20911;DHT22;10615;42.702;23.314;2024-03-17T04:39:44;8.40;90.50
20911;DHT22;10615;42.702;23.314;2024-03-17T04:40:45;8.40;90.50
20911;DHT22;10615;42.702;23.314;2024-03-17T04:41:47;8.40;90.60
20911;DHT22;10615;42.702;23.314;2024-03-17T04:42:48;8.40;90.60
20911;DHT22;10615;42.702;23.314;2024-03-17T04:43:49;8.40;90.60
20911;DHT22;10615;42.702;23.314;2024-03-17T04:44:50;8.40;90.60
20911;DHT22;10615;42.702;23.314;2024-03-17T04:45:59;8.40;90.60
20911;DHT22;10615;42.702;23.314;2024-03-17T04:47:01;8.40;90.60
20911;DHT22;10615;42.702;23.314;2024-03-17T04:48:02;8.40;90.60
20911;DHT22;10615;42.702;23.314;2024-03-17T04:49:03;8.40;90.70
20911;DHT22;10615;42.702;23.314;2024-03-17T04:50:04;8.30;90.70
20911;DHT22;10615;42.702;23.314;2024-03-17T04:51:05;8.30;90.70
20911;DHT22;10615;42.702;23.314;2024-03-17T04:52:06;8.40;90.80
20911;DHT22;10615;42.702;23.314;2024-03-17T04:53:07;8.40;90.80
20911;DHT22;10615;42.702;23.314;2024-03-17T04:54:08;8.40;90.80
20911;DHT22;10615;42.702;23.314;2024-03-17T04:55:09;8.40;90.90
20911;DHT22;10615;42.702;23.314;2024-03-17T04:56:10;8.40;90.90
20911;DHT22;10615;42.702;23.314;2024-03-17T04:57:11;8.50;90.90
20911;DHT22;10615;42.702;23.314;2024-03-17T04:58:11;8.50;90.80
20911;DHT22;10615;42.702;23.314;2024-03-17T04:59:12;8.50;90.80
20911;DHT22;10615;42.702;23.314;2024-03-17T05:00:13;8.60;90.80
20911;DHT22;10615;42.702;23.314;2024-03-17T05:01:14;8.60;90.60
20911;DHT22;10615;42.702;23.314;2024-03-17T05:02:15;8.60;90.60
20911;DHT22;10615;42.702;23.314;2024-03-17T05:03:15;8.60;90.60
20911;DHT22;10615;42.702;23.314;2024-03-17T05:04:16;8.60;90.60
20911;DHT22;10615;42.702;23.314;2024-03-17T05:05:17;8.60;90.60
20911;DHT22;10615;42.702;23.314;2024-03-17T05:06:18;8.70;90.60
20911;DHT22;10615;42.702;23.314;2024-03-17T05:07:19;8.60;90.60
20911;DHT22;10615;42.702;23.314;2024-03-17T05:08:19;8.70;90.60
20911;DHT22;10615;42.702;23.314;2024-03-17T05:09:20;8.70;90.60
20911;DHT22;10615;42.702;23.314;2024-03-17T05:10:21;8.80;90.60
20911;DHT22;10615;42.702;23.314;2024-03-17T05:11:22;8.80;90.50
20911;DHT22;10615;42.702;23.314;2024-03-17T05:12:24;8.80;90.40
20911;DHT22;10615;42.702;23.314;2024-03-17T05:13:28;8.90;90.40
20911;DHT22;10615;42.702;23.314;2024-03-17T05:14:28;9.00;90.40
20911;DHT22;10615;42.702;23.314;2024-03-17T05:15:29;8.90;90.30
20911;DHT22;10615;42.702;23.314;2024-03-17T05:16:30;9.00;90.30
20911;DHT22;10615;42.702;23.314;2024-03-17T05:17:31;9.00;90.20
20911;DHT22;10615;42.702;23.314;2024-03-17T05:18:31;9.00;90.20
20911;DHT22;10615;42.702;23.314;2024-03-17T05:19:36;9.10;90.10
20911;DHT22;10615;42.702;23.314;2024-03-17T05:20:36;9.10;90.00
20911;DHT22;10615;42.702;23.314;2024-03-17T05:21:37;9.10;89.90
20911;DHT22;10615;42.702;23.314;2024-03-17T05:22:38;9.20;89.80
20911;DHT22;10615;42.702;23.314;2024-03-17T05:23:39;9.20;89.70
20911;DHT22;10615;42.702;23.314;2024-03-17T05:24:40;9.20;89.50
20911;DHT22;10615;42.702;23.314;2024-03-17T05:25:41;9.30;89.40
20911;DHT22;10615;42.702;23.314;2024-03-17T05:26:41;9.30;89.20
20911;DHT22;10615;42.702;23.314;2024-03-17T05:27:46;9.40;89.10
20911;DHT22;10615;42.702;23.314;2024-03-17T05:28:46;9.40;88.80
20911;DHT22;10615;42.702;23.314;2024-03-17T05:29:47;9.50;88.60
20911;DHT22;10615;42.702;23.314;2024-03-17T05:30:48;9.50;88.40
20911;DHT22;10615;42.702;23.314;2024-03-17T05:31:50;9.50;88.20
20911;DHT22;10615;42.702;23.314;2024-03-17T05:32:51;9.60;88.10
20911;DHT22;10615;42.702;23.314;2024-03-17T05:33:52;9.60;87.80
20911;DHT22;10615;42.702;23.314;2024-03-17T05:34:53;9.70;87.80
20911;DHT22;10615;42.702;23.314;2024-03-17T05:35:56;9.70;87.50
20911;DHT22;10615;42.702;23.314;2024-03-17T05:36:57;9.70;87.30
20911;DHT22;10615;42.702;23.314;2024-03-17T05:37:58;9.80;87.10
20911;DHT22;10615;42.702;23.314;2024-03-17T05:38:59;9.80;87.00
20911;DHT22;10615;42.702;23.314;2024-03-17T05:40:00;9.80;86.80
20911;DHT22;10615;42.702;23.314;2024-03-17T05:41:05;9.80;86.70
20911;DHT22;10615;42.702;23.314;2024-03-17T05:42:06;9.90;86.50
20911;DHT22;10615;42.702;23.314;2024-03-17T05:43:07;9.90;86.20
20911;DHT22;10615;42.702;23.314;2024-03-17T05:44:08;9.90;86.10
20911;DHT22;10615;42.702;23.314;2024-03-17T05:45:09;10.00;85.90
20911;DHT22;10615;42.702;23.314;2024-03-17T05:46:12;10.00;85.90
20911;DHT22;10615;42.702;23.314;2024-03-17T05:47:14;10.00;85.60
20911;DHT22;10615;42.702;23.314;2024-03-17T05:48:15;10.00;85.50
20911;DHT22;10615;42.702;23.314;2024-03-17T05:49:15;10.00;85.30
20911;DHT22;10615;42.702;23.314;2024-03-17T05:50:16;10.10;85.30
20911;DHT22;10615;42.702;23.314;2024-03-17T05:51:17;10.10;85.20
20911;DHT22;10615;42.702;23.314;2024-03-17T05:52:18;10.20;85.30
20911;DHT22;10615;42.702;23.314;2024-03-17T05:53:19;10.20;85.20
20911;DHT22;10615;42.702;23.314;2024-03-17T05:54:20;10.20;85.10
20911;DHT22;10615;42.702;23.314;2024-03-17T05:55:21;10.30;84.90
20911;DHT22;10615;42.702;23.314;2024-03-17T05:56:22;10.40;84.70
20911;DHT22;10615;42.702;23.314;2024-03-17T05:57:23;10.40;84.50
20911;DHT22;10615;42.702;23.314;2024-03-17T05:58:24;10.50;84.30
20911;DHT22;10615;42.702;23.314;2024-03-17T05:59:25;10.50;84.10
20911;DHT22;10615;42.702;23.314;2024-03-17T06:00:26;10.60;83.90
20911;DHT22;10615;42.702;23.314;2024-03-17T06:01:26;10.60;83.70
20911;DHT22;10615;42.702;23.314;2024-03-17T06:02:27;10.70;83.40
20911;DHT22;10615;42.702;23.314;2024-03-17T06:03:29;10.70;83.10
20911;DHT22;10615;42.702;23.314;2024-03-17T06:04:29;10.80;83.10
20911;DHT22;10615;42.702;23.314;2024-03-17T06:05:34;10.80;82.90
20911;DHT22;10615;42.702;23.314;2024-03-17T06:06:35;10.90;82.80
20911;DHT22;10615;42.702;23.314;2024-03-17T06:07:36;10.90;82.60
20911;DHT22;10615;42.702;23.314;2024-03-17T06:08:37;11.00;82.40
20911;DHT22;10615;42.702;23.314;2024-03-17T06:09:39;11.10;82.10
20911;DHT22;10615;42.702;23.314;2024-03-17T06:10:44;11.10;81.80
20911;DHT22;10615;42.702;23.314;2024-03-17T06:11:46;11.20;81.60
20911;DHT22;10615;42.702;23.314;2024-03-17T06:12:47;11.30;81.40
20911;DHT22;10615;42.702;23.314;2024-03-17T06:13:47;11.40;81.30
20911;DHT22;10615;42.702;23.314;2024-03-17T06:14:48;11.50;81.00
20911;DHT22;10615;42.702;23.314;2024-03-17T06:15:49;11.50;80.60
20911;DHT22;10615;42.702;23.314;2024-03-17T06:16:50;11.60;80.20
20911;DHT22;10615;42.702;23.314;2024-03-17T06:17:51;11.60;79.80
20911;DHT22;10615;42.702;23.314;2024-03-17T06:18:53;11.70;79.70
20911;DHT22;10615;42.702;23.314;2024-03-17T06:19:53;11.80;79.50
20911;DHT22;10615;42.702;23.314;2024-03-17T06:20:54;11.80;79.30
20911;DHT22;10615;42.702;23.314;2024-03-17T06:21:58;11.90;79.00
20911;DHT22;10615;42.702;23.314;2024-03-17T06:22:59;11.90;78.60
20911;DHT22;10615;42.702;23.314;2024-03-17T06:24:00;12.00;78.50
20911;DHT22;10615;42.702;23.314;2024-03-17T06:25:00;12.10;78.20
20911;DHT22;10615;42.702;23.314;2024-03-17T06:26:01;12.20;78.00
20911;DHT22;10615;42.702;23.314;2024-03-17T06:27:06;12.20;77.60
20911;DHT22;10615;42.702;23.314;2024-03-17T06:28:06;12.30;77.40